createdAt,value
2023-01-27T00:00:26.726Z,-0.80
2023-01-27T00:02:53.565Z,-0.80
2023-01-27T00:05:20.369Z,-0.80
2023-01-27T00:07:48.018Z,-0.80
2023-01-27T00:10:15.932Z,-0.90
2023-01-27T00:13:02.116Z,-1.10
2023-01-27T00:15:29.322Z,-0.80
2023-01-27T00:17:56.182Z,-1.10
2023-01-27T00:20:41.944Z,-0.90
2023-01-27T00:23:35.298Z,-0.90
2023-01-27T00:26:06.934Z,0.40
2023-01-27T00:28:37.388Z,-0.90
2023-01-27T00:31:04.732Z,-0.90
2023-01-27T00:33:31.629Z,-0.90
2023-01-27T00:36:03.643Z,-0.90
2023-01-27T00:38:31.645Z,-0.90
2023-01-27T00:41:19.831Z,-0.90
2023-01-27T00:43:47.474Z,-0.90
2023-01-27T00:46:15.403Z,-0.90
2023-01-27T00:48:42.179Z,-0.90
2023-01-27T00:51:09.276Z,-0.90
2023-01-27T00:53:36.117Z,-0.90
2023-01-27T00:56:02.951Z,-1.00
2023-01-27T00:58:29.917Z,-0.30
2023-01-27T01:00:59.314Z,-1.00
2023-01-27T01:03:27.032Z,1.10
2023-01-27T01:05:53.804Z,-1.10
2023-01-27T01:08:20.593Z,-1.10
2023-01-27T01:10:47.366Z,-1.10
2023-01-27T01:13:14.757Z,-3.00
2023-01-27T01:15:41.839Z,-1.10
2023-01-27T01:18:09.528Z,-1.10
2023-01-27T01:20:39.727Z,-1.10
2023-01-27T01:23:07.051Z,-1.10
2023-01-27T01:25:35.270Z,-1.20
2023-01-27T01:28:03.038Z,-1.10
2023-01-27T01:30:30.164Z,-1.10
2023-01-27T01:32:57.154Z,-0.60
2023-01-27T01:35:25.220Z,-1.10
2023-01-27T01:37:53.207Z,-1.10
2023-01-27T01:40:20.549Z,-1.10
2023-01-27T01:42:53.114Z,-1.10
2023-01-27T01:45:32.522Z,-1.10
2023-01-27T01:48:01.062Z,-1.00
2023-01-27T01:50:27.872Z,-1.10
2023-01-27T01:52:54.654Z,-1.00
2023-01-27T01:55:22.391Z,-1.40
2023-01-27T01:57:49.260Z,-1.10
2023-01-27T02:00:16.609Z,-1.30
2023-01-27T02:02:46.568Z,-1.10
2023-01-27T02:05:19.473Z,-1.10
2023-01-27T02:07:50.487Z,-1.20
2023-01-27T02:10:17.358Z,-1.20
2023-01-27T02:12:45.608Z,-1.10
2023-01-27T02:15:12.678Z,-1.20
2023-01-27T02:17:39.655Z,-1.20
2023-01-27T02:20:17.881Z,-1.20
2023-01-27T02:23:16.512Z,-1.20
2023-01-27T02:26:22.704Z,-1.20
2023-01-27T02:29:12.004Z,-1.20
2023-01-27T02:31:39.017Z,-1.20
2023-01-27T02:34:16.613Z,-1.20
2023-01-27T02:36:57.828Z,-1.20
2023-01-27T02:39:28.345Z,-1.20
2023-01-27T02:41:55.957Z,-1.20
2023-01-27T02:44:22.879Z,-1.30
2023-01-27T02:46:49.835Z,-1.20
2023-01-27T02:49:19.617Z,-2.60
2023-01-27T02:51:46.502Z,-1.20
2023-01-27T02:54:13.373Z,-1.30
2023-01-27T02:56:41.582Z,-1.30
2023-01-27T02:59:09.082Z,-1.20
2023-01-27T03:01:39.463Z,-1.20
2023-01-27T03:04:07.961Z,-1.20
2023-01-27T03:06:34.741Z,-1.30
2023-01-27T03:09:01.485Z,-1.20
2023-01-27T03:11:46.772Z,-1.10
2023-01-27T03:14:13.581Z,-1.10
2023-01-27T03:16:58.920Z,-1.10
2023-01-27T03:19:26.793Z,0.50
2023-01-27T03:21:54.108Z,-1.10
2023-01-27T03:24:22.240Z,-1.10
2023-01-27T03:26:49.419Z,-0.50
2023-01-27T03:29:37.115Z,-1.20
2023-01-27T03:32:06.054Z,-1.20
2023-01-27T03:34:33.769Z,-1.20
2023-01-27T03:37:26.788Z,-1.20
2023-01-27T03:40:12.257Z,2.20
2023-01-27T03:42:57.493Z,-1.20
2023-01-27T03:45:42.885Z,-1.20
2023-01-27T03:48:09.613Z,-1.10
2023-01-27T03:50:43.247Z,-1.10
2023-01-27T03:53:10.396Z,-0.50
2023-01-27T03:55:37.712Z,-1.20
2023-01-27T03:58:26.416Z,-1.20
2023-01-27T04:00:57.114Z,-1.10
2023-01-27T04:03:43.371Z,-1.10
2023-01-27T04:06:30.654Z,-1.10
2023-01-27T04:08:57.667Z,-1.10
2023-01-27T04:11:43.279Z,-1.10
2023-01-27T04:14:10.360Z,-1.10
2023-01-27T04:16:37.176Z,0.10
2023-01-27T04:19:05.217Z,-1.10
2023-01-27T04:21:31.971Z,-2.50
2023-01-27T04:23:58.758Z,-1.20
2023-01-27T04:26:25.740Z,2.50
2023-01-27T04:28:52.600Z,-1.10
2023-01-27T04:31:19.416Z,-1.30
2023-01-27T04:33:46.259Z,-1.10
2023-01-27T04:36:14.119Z,-1.10
2023-01-27T04:38:40.907Z,-1.20
2023-01-27T04:41:07.667Z,-1.30
2023-01-27T04:43:34.468Z,-1.10
2023-01-27T04:46:01.295Z,-1.10
2023-01-27T04:48:28.088Z,-1.20
2023-01-27T04:50:54.857Z,-1.10
2023-01-27T04:53:21.583Z,-1.10
2023-01-27T04:55:49.318Z,-1.10
2023-01-27T04:58:17.711Z,-1.10
2023-01-27T05:00:44.984Z,-1.10
2023-01-27T05:03:12.029Z,-1.10
2023-01-27T05:05:38.874Z,-1.10
2023-01-27T05:08:06.183Z,-1.10
2023-01-27T05:10:32.975Z,-1.10
2023-01-27T05:12:59.812Z,-1.20
2023-01-27T05:15:26.641Z,-1.20
2023-01-27T05:17:53.435Z,-1.20
2023-01-27T05:20:20.271Z,-1.30
2023-01-27T05:22:47.111Z,-1.10
2023-01-27T05:25:14.219Z,1.30
2023-01-27T05:27:41.489Z,-1.10
2023-01-27T05:30:08.902Z,-1.10
2023-01-27T05:32:35.670Z,-1.10
2023-01-27T05:35:02.753Z,-1.20
2023-01-27T05:37:29.572Z,-1.10
2023-01-27T05:39:56.509Z,-1.10
2023-01-27T05:42:23.275Z,-1.10
2023-01-27T05:44:50.654Z,-1.10
2023-01-27T05:47:17.426Z,-1.10
2023-01-27T05:49:44.198Z,-1.30
2023-01-27T05:52:10.998Z,-1.30
2023-01-27T05:54:37.783Z,-1.20
2023-01-27T05:57:04.607Z,-1.10
2023-01-27T05:59:31.344Z,-1.20
2023-01-27T06:01:58.309Z,-1.10
2023-01-27T06:04:25.120Z,-1.10
2023-01-27T06:06:51.892Z,-1.10
2023-01-27T06:09:18.651Z,-1.00
2023-01-27T06:11:45.553Z,-1.00
2023-01-27T06:14:12.386Z,-1.10
2023-01-27T06:16:39.218Z,1.30
2023-01-27T06:19:05.987Z,-1.10
2023-01-27T06:21:32.745Z,-1.40
2023-01-27T06:23:59.660Z,-1.10
2023-01-27T06:26:26.561Z,-1.10
2023-01-27T06:28:53.499Z,-1.10
2023-01-27T06:31:21.865Z,-1.10
2023-01-27T06:33:49.235Z,-1.30
2023-01-27T06:36:17.480Z,-1.10
2023-01-27T06:38:44.355Z,-1.10
2023-01-27T06:41:11.162Z,-1.10
2023-01-27T06:43:37.933Z,-1.10
2023-01-27T06:46:06.041Z,-1.10
2023-01-27T06:48:33.357Z,-1.10
2023-01-27T06:51:00.227Z,-1.20
2023-01-27T06:53:27.079Z,-1.10
2023-01-27T06:55:56.187Z,-0.60
2023-01-27T06:58:22.934Z,-1.10
2023-01-27T07:00:49.756Z,-1.00
2023-01-27T07:05:42.593Z,-1.10
2023-01-27T07:08:09.351Z,-1.20
2023-01-27T07:10:36.168Z,-1.00
2023-01-27T07:13:10.674Z,-1.00
2023-01-27T07:15:37.712Z,-1.00
2023-01-27T07:18:04.685Z,-1.00
2023-01-27T07:20:31.941Z,-0.90
2023-01-27T07:22:59.645Z,-0.90
2023-01-27T07:25:26.479Z,-0.90
2023-01-27T07:27:53.495Z,-0.90
2023-01-27T07:30:20.407Z,-1.10
2023-01-27T07:32:47.278Z,-0.90
2023-01-27T07:35:14.088Z,-0.40
2023-01-27T07:37:41.471Z,1.30
2023-01-27T07:40:09.832Z,-0.90
2023-01-27T07:42:36.645Z,-0.90
2023-01-27T07:45:03.659Z,-1.10
2023-01-27T07:47:30.458Z,-0.90
2023-01-27T07:49:57.535Z,-0.90
2023-01-27T07:52:24.296Z,-0.90
2023-01-27T07:54:51.060Z,-0.90
2023-01-27T07:57:17.898Z,-0.80
2023-01-27T07:59:44.647Z,-0.80
2023-01-27T08:02:11.417Z,-0.70
2023-01-27T08:04:52.162Z,-0.80
2023-01-27T08:07:19.909Z,-0.80
2023-01-27T08:09:46.689Z,-0.80
2023-01-27T08:12:13.477Z,0.90
2023-01-27T08:14:40.227Z,-0.70
2023-01-27T08:17:06.996Z,-0.70
2023-01-27T08:19:33.744Z,-0.60
2023-01-27T08:22:00.486Z,2.20
2023-01-27T08:24:27.269Z,-0.60
2023-01-27T08:26:54.157Z,-0.60
2023-01-27T08:29:20.935Z,-0.50
2023-01-27T08:31:47.781Z,1.40
2023-01-27T08:34:15.069Z,-0.40
2023-01-27T08:36:43.536Z,-0.50
2023-01-27T08:39:10.824Z,-0.40
2023-01-27T08:41:37.618Z,-0.40
2023-01-27T08:44:04.544Z,-0.30
2023-01-27T08:46:31.423Z,-0.30
2023-01-27T08:48:58.198Z,-0.30
2023-01-27T08:51:24.990Z,-0.30
2023-01-27T08:53:51.758Z,-0.30
2023-01-27T08:56:18.552Z,-0.30
2023-01-27T08:58:47.421Z,-0.30
2023-01-27T09:01:14.853Z,-0.30
2023-01-27T09:03:41.773Z,-0.30
2023-01-27T09:06:09.305Z,-0.40
2023-01-27T09:08:36.245Z,-0.10
2023-01-27T09:11:15.078Z,-0.10
2023-01-27T09:13:42.083Z,0.00
2023-01-27T09:16:08.953Z,0.00
2023-01-27T09:18:35.793Z,0.00
2023-01-27T09:21:06.207Z,0.00
2023-01-27T09:23:33.585Z,0.10
2023-01-27T09:26:00.454Z,0.10
2023-01-27T09:28:27.358Z,0.20
2023-01-27T09:30:57.865Z,0.20
2023-01-27T09:33:26.010Z,0.20
2023-01-27T09:36:01.675Z,3.10
2023-01-27T09:38:30.225Z,0.30
2023-01-27T09:41:09.432Z,0.40
2023-01-27T09:44:02.257Z,0.40
2023-01-27T09:46:42.191Z,0.40
2023-01-27T09:49:40.102Z,0.40
2023-01-27T09:52:26.228Z,0.40
2023-01-27T09:55:27.747Z,0.50
2023-01-27T09:57:54.532Z,0.40
2023-01-27T10:00:24.869Z,0.40
2023-01-27T10:03:13.412Z,0.10
2023-01-27T10:06:02.502Z,0.40
2023-01-27T10:09:07.065Z,0.30
2023-01-27T10:11:42.444Z,0.30
2023-01-27T10:14:09.201Z,0.30
2023-01-27T10:17:04.041Z,0.20
2023-01-27T10:19:42.170Z,0.30
2023-01-27T10:22:33.990Z,0.30
2023-01-27T10:25:08.662Z,0.30
2023-01-27T10:27:37.084Z,0.20
2023-01-27T10:30:24.294Z,0.20
2023-01-27T10:33:15.286Z,0.10
2023-01-27T10:35:54.252Z,0.00
2023-01-27T10:38:43.845Z,-0.10
2023-01-27T10:41:24.215Z,-0.10
2023-01-27T10:44:22.120Z,2.40
2023-01-27T10:47:06.503Z,-0.30
2023-01-27T10:49:42.091Z,-0.30
2023-01-27T10:52:15.614Z,-0.30
2023-01-27T10:54:50.445Z,-0.40
2023-01-27T10:57:20.266Z,-0.40
2023-01-27T11:00:33.664Z,-0.40
2023-01-27T11:02:58.395Z,-0.40
2023-01-27T11:05:37.925Z,-0.60
2023-01-27T11:08:12.314Z,-0.40
2023-01-27T11:11:21.066Z,-0.40
2023-01-27T11:13:47.831Z,-0.30
2023-01-27T11:16:18.813Z,-0.30
2023-01-27T11:18:46.560Z,-0.20
2023-01-27T11:21:18.331Z,-0.20
2023-01-27T11:23:48.814Z,-0.40
2023-01-27T11:26:39.719Z,-0.40
2023-01-27T11:29:06.566Z,0.10
2023-01-27T11:31:40.561Z,1.70
2023-01-27T11:34:11.189Z,0.20
2023-01-27T11:36:37.935Z,0.30
2023-01-27T11:39:06.677Z,0.00
2023-01-27T11:41:46.291Z,0.30
2023-01-27T11:44:21.202Z,0.20
2023-01-27T11:46:48.387Z,0.20
2023-01-27T11:49:27.272Z,0.20
2023-01-27T11:51:59.188Z,0.30
2023-01-27T11:54:26.127Z,1.50
2023-01-27T11:56:53.009Z,0.30
2023-01-27T11:59:23.421Z,0.30
2023-01-27T12:01:56.773Z,0.20
2023-01-27T12:04:38.794Z,0.00
2023-01-27T12:07:10.854Z,0.20
2023-01-27T12:09:41.318Z,0.00
2023-01-27T12:12:25.613Z,0.20
2023-01-27T12:14:58.643Z,0.20
2023-01-27T12:17:34.281Z,0.10
2023-01-27T12:20:03.764Z,0.30
2023-01-27T12:22:34.763Z,0.30
2023-01-27T12:25:06.462Z,0.40
2023-01-27T12:27:52.609Z,0.40
2023-01-27T12:30:24.350Z,0.40
2023-01-27T12:32:51.327Z,0.80
2023-01-27T12:35:38.476Z,0.50
2023-01-27T12:38:14.972Z,1.90
2023-01-27T12:40:43.248Z,0.50
2023-01-27T12:43:18.863Z,0.50
2023-01-27T12:45:45.721Z,0.60
2023-01-27T12:48:19.839Z,0.50
2023-01-27T12:50:55.355Z,0.60
2023-01-27T12:53:29.547Z,0.40
2023-01-27T12:56:13.972Z,0.60
2023-01-27T12:58:56.522Z,0.60
2023-01-27T13:01:31.455Z,2.20
2023-01-27T13:04:05.448Z,0.60
2023-01-27T13:06:43.453Z,0.70
2023-01-27T13:09:35.082Z,0.50
2023-01-27T13:12:05.110Z,0.70
2023-01-27T13:14:35.439Z,0.70
2023-01-27T13:17:03.560Z,0.70
2023-01-27T13:19:42.452Z,0.70
2023-01-27T13:22:12.156Z,0.70
2023-01-27T13:24:42.284Z,0.50
2023-01-27T13:27:15.445Z,0.70
2023-01-27T13:29:42.688Z,0.60
2023-01-27T13:32:23.434Z,1.70
2023-01-27T13:35:06.517Z,0.60
2023-01-27T13:37:34.702Z,0.60
2023-01-27T13:40:04.881Z,0.60
2023-01-27T13:42:43.606Z,0.50
2023-01-27T13:45:33.920Z,0.50
2023-01-27T13:48:03.910Z,0.60
2023-01-27T13:50:44.891Z,0.60
2023-01-27T13:53:13.022Z,0.60
2023-01-27T13:56:04.613Z,2.60
2023-01-27T13:58:55.917Z,0.60
2023-01-27T14:01:54.834Z,0.70
2023-01-27T14:04:30.483Z,0.70
2023-01-27T14:07:05.734Z,0.70
2023-01-27T14:09:54.147Z,0.70
2023-01-27T14:12:27.295Z,0.70
2023-01-27T14:15:03.808Z,0.60
2023-01-27T14:17:36.960Z,0.60
2023-01-27T14:20:18.790Z,0.60
2023-01-27T14:22:50.920Z,0.60
2023-01-27T14:25:29.154Z,0.70
2023-01-27T14:28:01.151Z,0.60
2023-01-27T14:30:35.059Z,0.60
2023-01-27T14:33:39.549Z,0.60
2023-01-27T14:36:18.316Z,0.60
2023-01-27T14:38:59.428Z,0.60
2023-01-27T14:41:32.265Z,0.60
2023-01-27T14:44:22.590Z,0.60
2023-01-27T14:46:56.601Z,0.50
2023-01-27T14:49:41.024Z,0.70
2023-01-27T14:52:26.382Z,0.50
2023-01-27T14:55:06.548Z,0.70
2023-01-27T14:57:39.547Z,0.60
2023-01-27T15:00:25.493Z,0.60
2023-01-27T15:03:07.318Z,0.60
2023-01-27T15:05:53.604Z,2.80
2023-01-27T15:08:48.997Z,0.60
2023-01-27T15:11:39.798Z,0.60
2023-01-27T15:14:21.739Z,0.60
2023-01-27T15:17:00.883Z,-0.10
2023-01-27T15:19:49.483Z,0.50
2023-01-27T15:22:30.969Z,0.50
2023-01-27T15:25:29.742Z,0.50
2023-01-27T15:27:56.760Z,0.40
2023-01-27T15:30:30.143Z,0.40
2023-01-27T15:32:57.218Z,0.40
2023-01-27T15:35:38.092Z,0.40
2023-01-27T15:38:21.133Z,0.40
2023-01-27T15:40:55.865Z,0.40
2023-01-27T15:43:23.426Z,0.40
2023-01-27T15:45:50.229Z,0.40
2023-01-27T15:48:20.074Z,0.30
2023-01-27T15:50:54.884Z,0.40
2023-01-27T15:53:33.054Z,0.40
2023-01-27T15:56:00.296Z,0.40
2023-01-27T15:58:46.072Z,0.30
2023-01-27T16:01:42.858Z,0.40
2023-01-27T16:04:23.340Z,1.40
2023-01-27T16:07:01.870Z,0.30
2023-01-27T16:09:41.910Z,0.30
2023-01-27T16:12:24.064Z,0.30
2023-01-27T16:15:25.952Z,0.30
2023-01-27T16:18:08.216Z,0.30
2023-01-27T16:20:42.484Z,0.30
2023-01-27T16:23:22.900Z,0.30
2023-01-27T16:25:54.914Z,0.30
2023-01-27T16:28:29.144Z,0.20
2023-01-27T16:31:19.182Z,0.30
2023-01-27T16:33:47.332Z,0.20
2023-01-27T16:36:36.123Z,0.20
2023-01-27T16:39:26.552Z,0.20
2023-01-27T16:41:57.609Z,1.00
2023-01-27T16:44:42.402Z,0.20
2023-01-27T16:47:33.696Z,0.20
2023-01-27T16:50:00.586Z,0.20
2023-01-27T16:52:41.231Z,0.20
2023-01-27T16:55:19.131Z,0.10
2023-01-27T16:57:45.880Z,0.20
2023-01-27T17:00:23.029Z,0.20
2023-01-27T17:02:51.051Z,0.20
2023-01-27T17:05:17.960Z,0.20
2023-01-27T17:08:13.848Z,0.20
2023-01-27T17:11:19.991Z,0.20
2023-01-27T17:13:56.201Z,0.20
2023-01-27T17:16:33.657Z,0.20
2023-01-27T17:19:20.982Z,0.20
2023-01-27T17:21:50.269Z,0.20
2023-01-27T17:24:28.990Z,0.20
2023-01-27T17:26:58.846Z,0.20
2023-01-27T17:29:26.041Z,0.20
2023-01-27T17:31:53.012Z,0.10
2023-01-27T17:34:20.151Z,0.10
2023-01-27T17:37:20.187Z,0.00
2023-01-27T17:39:47.152Z,0.20
2023-01-27T17:42:15.640Z,0.20
2023-01-27T17:44:42.767Z,1.70
2023-01-27T17:47:14.646Z,0.20
2023-01-27T17:49:41.464Z,0.20
2023-01-27T17:52:09.401Z,0.20
2023-01-27T17:54:39.734Z,0.20
2023-01-27T17:57:14.386Z,0.20
2023-01-27T17:59:43.730Z,0.10
2023-01-27T18:02:42.416Z,0.10
2023-01-27T18:05:23.416Z,0.60
2023-01-27T18:07:50.311Z,0.10
2023-01-27T18:10:34.082Z,0.00
2023-01-27T18:13:19.036Z,0.10
2023-01-27T18:16:00.695Z,0.00
2023-01-27T18:18:31.037Z,0.00
2023-01-27T18:21:00.870Z,0.00
2023-01-27T18:23:37.597Z,0.00
2023-01-27T18:26:13.296Z,0.00
2023-01-27T18:28:40.064Z,0.00
2023-01-27T18:31:13.641Z,2.50
2023-01-27T18:33:42.850Z,0.00
2023-01-27T18:40:35.484Z,0.00
2023-01-27T18:43:05.396Z,-0.10
2023-01-27T18:45:32.314Z,0.00
2023-01-27T18:47:59.591Z,0.00
2023-01-27T18:50:26.720Z,-0.30
2023-01-27T18:52:53.756Z,0.00
2023-01-27T18:55:25.463Z,-0.10
2023-01-27T18:57:59.326Z,-0.20
2023-01-27T19:00:28.155Z,0.00
2023-01-27T19:02:57.138Z,0.00
2023-01-27T19:05:34.295Z,0.00
2023-01-27T19:08:01.395Z,0.00
2023-01-27T19:10:29.820Z,0.00
2023-01-27T19:12:58.525Z,0.00
2023-01-27T19:15:29.890Z,0.00
2023-01-27T19:17:57.236Z,0.00
2023-01-27T19:20:28.627Z,-0.10
2023-01-27T19:22:56.456Z,0.00
2023-01-27T19:25:24.239Z,-0.10
2023-01-27T19:27:52.721Z,-0.10
2023-01-27T19:30:19.887Z,-0.10
2023-01-27T19:32:46.665Z,-0.10
2023-01-27T19:35:13.937Z,0.00
2023-01-27T19:37:41.435Z,-0.10
2023-01-27T19:40:21.727Z,0.00
2023-01-27T19:42:48.585Z,0.00
2023-01-27T19:45:16.593Z,0.00
2023-01-27T19:47:45.008Z,-0.20
2023-01-27T19:50:23.263Z,0.00
2023-01-27T19:52:50.168Z,0.00
2023-01-27T19:55:17.526Z,0.00
2023-01-27T19:57:44.557Z,0.00
2023-01-27T20:00:22.057Z,0.00
2023-01-27T20:02:48.862Z,0.00
2023-01-27T20:05:15.993Z,0.00
2023-01-27T20:07:44.404Z,-0.10
2023-01-27T20:10:16.699Z,-0.10
2023-01-27T20:12:44.479Z,-0.10
2023-01-27T20:15:15.904Z,-0.10
2023-01-27T20:17:43.064Z,-0.10
2023-01-27T20:20:12.666Z,-0.10
2023-01-27T20:22:39.611Z,-0.10
2023-01-27T20:25:06.940Z,-0.10
2023-01-27T20:27:33.727Z,-0.10
2023-01-27T20:30:00.519Z,-0.20
2023-01-27T20:32:27.459Z,-0.20
2023-01-27T20:34:59.115Z,-0.20
2023-01-27T20:37:26.273Z,-0.20
2023-01-27T20:39:53.163Z,-0.10
2023-01-27T20:42:19.919Z,-0.10
2023-01-27T20:44:46.706Z,-0.10
2023-01-27T20:47:13.530Z,-0.10
2023-01-27T20:49:40.353Z,-0.30
2023-01-27T20:52:07.223Z,-0.30
2023-01-27T20:54:34.190Z,-0.10
2023-01-27T20:57:00.947Z,-0.10
2023-01-27T20:59:27.760Z,-0.20
2023-01-27T21:01:54.507Z,-0.10
2023-01-27T21:04:21.248Z,0.00
2023-01-27T21:06:48.008Z,-0.10
2023-01-27T21:09:14.752Z,-0.10
2023-01-27T21:11:41.592Z,0.00
2023-01-27T21:14:09.240Z,0.00
2023-01-27T21:16:36.114Z,-0.10
2023-01-27T21:19:03.007Z,-0.10
2023-01-27T21:21:30.439Z,-0.10
2023-01-27T21:23:57.962Z,-0.10
2023-01-27T21:26:24.807Z,-0.10
2023-01-27T21:28:51.873Z,-2.00
2023-01-27T21:31:20.220Z,-0.10
2023-01-27T21:33:48.427Z,-0.20
2023-01-27T21:36:15.609Z,-0.10
2023-01-27T21:38:42.377Z,1.80
2023-01-27T21:41:14.318Z,-0.30
2023-01-27T21:43:59.567Z,-0.20
2023-01-27T21:46:26.338Z,-0.30
2023-01-27T21:48:53.157Z,-0.30
2023-01-27T21:51:19.999Z,-0.50
2023-01-27T21:53:46.764Z,-0.50
2023-01-27T21:56:13.542Z,-0.30
2023-01-27T21:58:40.516Z,-0.30
2023-01-27T22:01:08.106Z,-0.30
2023-01-27T22:03:35.070Z,-0.30
2023-01-27T22:06:08.400Z,-0.50
2023-01-27T22:08:35.225Z,-0.30
2023-01-27T22:11:11.589Z,-0.30
2023-01-27T22:13:39.225Z,-0.40
2023-01-27T22:16:06.617Z,-0.40
2023-01-27T22:18:36.028Z,-0.40
2023-01-27T22:21:02.866Z,-0.60
2023-01-27T22:23:29.673Z,-0.50
2023-01-27T22:25:56.410Z,-0.70
2023-01-27T22:28:24.286Z,-0.50
2023-01-27T22:30:51.253Z,-0.50
2023-01-27T22:33:18.072Z,-0.70
2023-01-27T22:35:44.901Z,-0.60
2023-01-27T22:38:11.694Z,-0.60
2023-01-27T22:40:38.487Z,-0.60
2023-01-27T22:43:09.273Z,-0.60
2023-01-27T22:45:39.299Z,0.50
2023-01-27T22:48:06.321Z,-0.60
2023-01-27T22:50:33.075Z,-0.70
2023-01-27T22:52:59.827Z,-0.60
2023-01-27T22:55:26.682Z,-0.60
2023-01-27T22:57:53.427Z,-0.60
2023-01-27T23:00:20.348Z,-0.60
2023-01-27T23:02:47.292Z,-0.60
2023-01-27T23:05:14.344Z,-0.70
2023-01-27T23:07:41.333Z,-0.60
2023-01-27T23:10:08.793Z,-0.60
2023-01-27T23:12:35.581Z,-0.60
2023-01-27T23:15:02.476Z,-0.70
2023-01-27T23:17:29.211Z,-0.50
2023-01-27T23:19:55.957Z,-0.60
2023-01-27T23:22:22.726Z,-0.50
2023-01-27T23:24:49.491Z,-0.50
2023-01-27T23:27:16.244Z,-0.50
2023-01-27T23:29:42.995Z,-0.50
2023-01-27T23:32:09.753Z,-0.50
2023-01-27T23:34:36.570Z,-0.50
2023-01-27T23:37:03.316Z,-0.50
2023-01-27T23:39:30.083Z,-0.50
2023-01-27T23:41:56.873Z,-0.20
2023-01-27T23:44:23.630Z,-0.50
2023-01-27T23:46:50.420Z,-0.50
2023-01-27T23:49:17.250Z,-0.40
2023-01-27T23:51:44.003Z,-0.50
2023-01-27T23:54:11.110Z,-0.50
2023-01-27T23:56:37.862Z,-0.50
2023-01-27T23:59:04.710Z,-0.50
